sensor_id;sensor_type;location;lat;lon;timestamp;pressure;altitude;pressure_sealevel;temperature;humidity
5296;BME280;2670;42.720;23.336;2023-05-14T00:01:03;-22849.69;;;14.03;78.50
5296;BME280;2670;42.720;23.336;2023-05-14T00:03:31;-22849.53;;;14.02;78.77
5296;BME280;2670;42.720;23.336;2023-05-14T00:05:58;-22848.63;;;13.99;78.86
5296;BME280;2670;42.720;23.336;2023-05-14T00:08:26;-22849.09;;;14.01;78.81
5296;BME280;2670;42.720;23.336;2023-05-14T00:10:53;-22849.69;;;14.03;78.19
5296;BME280;2670;42.720;23.336;2023-05-14T00:13:20;-22848.19;;;13.98;78.39
5296;BME280;2670;42.720;23.336;2023-05-14T00:15:46;-22848.94;;;14.00;78.50
5296;BME280;2670;42.720;23.336;2023-05-14T00:18:13;-22850.41;;;14.05;77.92
5296;BME280;2670;42.720;23.336;2023-05-14T00:20:40;-22848.50;;;13.99;77.75
5296;BME280;2670;42.720;23.336;2023-05-14T00:23:06;-22848.94;;;14.00;77.72
5296;BME280;2670;42.720;23.336;2023-05-14T00:25:35;-22847.47;;;13.95;77.79
5296;BME280;2670;42.720;23.336;2023-05-14T00:28:02;-22848.19;;;13.98;77.49
5296;BME280;2670;42.720;23.336;2023-05-14T00:30:29;-22849.38;;;14.02;77.11
5296;BME280;2670;42.720;23.336;2023-05-14T00:32:55;-22848.50;;;13.99;77.07
5296;BME280;2670;42.720;23.336;2023-05-14T00:35:22;-22848.63;;;13.99;77.46
5296;BME280;2670;42.720;23.336;2023-05-14T00:37:49;-22847.16;;;13.94;77.17
5296;BME280;2670;42.720;23.336;2023-05-14T00:40:16;-22847.59;;;13.95;77.00
5296;BME280;2670;42.720;23.336;2023-05-14T00:42:44;-22848.06;;;13.97;77.93
5296;BME280;2670;42.720;23.336;2023-05-14T00:45:10;-22849.53;;;14.02;77.08
5296;BME280;2670;42.720;23.336;2023-05-14T00:47:37;-22846.56;;;13.92;77.65
5296;BME280;2670;42.720;23.336;2023-05-14T00:50:05;-22846.00;;;13.90;77.05
5296;BME280;2670;42.720;23.336;2023-05-14T00:52:32;-22844.94;;;13.86;76.85
5296;BME280;2670;42.720;23.336;2023-05-14T00:55:01;-22846.28;;;13.91;76.63
5296;BME280;2670;42.720;23.336;2023-05-14T00:57:29;-22844.81;;;13.86;76.67
5296;BME280;2670;42.720;23.336;2023-05-14T00:59:57;-22843.47;;;13.81;76.64
5296;BME280;2670;42.720;23.336;2023-05-14T01:02:24;-22842.28;;;13.77;76.27
5296;BME280;2670;42.720;23.336;2023-05-14T01:04:52;-22838.47;;;13.64;75.84
5296;BME280;2670;42.720;23.336;2023-05-14T01:07:24;-22842.00;;;13.76;75.25
5296;BME280;2670;42.720;23.336;2023-05-14T01:10:00;-22843.03;;;13.80;74.33
5296;BME280;2670;42.720;23.336;2023-05-14T01:12:33;-22842.00;;;13.76;75.04
5296;BME280;2670;42.720;23.336;2023-05-14T01:15:07;-22841.25;;;13.74;74.16
5296;BME280;2670;42.720;23.336;2023-05-14T01:17:42;-22841.25;;;13.74;74.51
5296;BME280;2670;42.720;23.336;2023-05-14T01:20:10;-22840.53;;;13.71;74.17
5296;BME280;2670;42.720;23.336;2023-05-14T01:22:38;-22839.94;;;13.69;74.13
5296;BME280;2670;42.720;23.336;2023-05-14T01:25:06;-22838.00;;;13.62;74.18
5296;BME280;2670;42.720;23.336;2023-05-14T01:27:37;-22837.56;;;13.61;74.04
5296;BME280;2670;42.720;23.336;2023-05-14T01:30:12;-22836.84;;;13.58;74.31
5296;BME280;2670;42.720;23.336;2023-05-14T01:32:40;-22835.66;;;13.54;74.19
5296;BME280;2670;42.720;23.336;2023-05-14T01:35:09;-22836.41;;;13.57;74.62
5296;BME280;2670;42.720;23.336;2023-05-14T01:37:39;-22835.06;;;13.52;74.26
5296;BME280;2670;42.720;23.336;2023-05-14T01:40:08;-22836.25;;;13.56;74.42
5296;BME280;2670;42.720;23.336;2023-05-14T01:42:36;-22836.09;;;13.56;73.80
5296;BME280;2670;42.720;23.336;2023-05-14T01:45:04;-22836.09;;;13.56;73.92
5296;BME280;2670;42.720;23.336;2023-05-14T01:47:31;-22836.25;;;13.56;73.68
5296;BME280;2670;42.720;23.336;2023-05-14T01:49:57;-22835.34;;;13.53;73.39
5296;BME280;2670;42.720;23.336;2023-05-14T01:52:24;-22836.41;;;13.57;73.71
5296;BME280;2670;42.720;23.336;2023-05-14T01:54:52;-22834.78;;;13.51;73.58
5296;BME280;2670;42.720;23.336;2023-05-14T01:57:19;-22835.50;;;13.54;73.54
5296;BME280;2670;42.720;23.336;2023-05-14T01:59:46;-22835.34;;;13.53;73.68
5296;BME280;2670;42.720;23.336;2023-05-14T02:02:12;-22835.66;;;13.54;73.97
5296;BME280;2670;42.720;23.336;2023-05-14T02:04:39;-22835.06;;;13.52;73.91
5296;BME280;2670;42.720;23.336;2023-05-14T02:07:06;-22833.59;;;13.47;74.90
5296;BME280;2670;42.720;23.336;2023-05-14T02:09:32;-22835.50;;;13.54;75.32
5296;BME280;2670;42.720;23.336;2023-05-14T02:12:00;-22833.16;;;13.45;75.17
5296;BME280;2670;42.720;23.336;2023-05-14T02:14:27;-22831.38;;;13.39;75.39
5296;BME280;2670;42.720;23.336;2023-05-14T02:16:54;-22835.50;;;13.54;74.89
5296;BME280;2670;42.720;23.336;2023-05-14T02:19:21;-22835.06;;;13.52;76.16
5296;BME280;2670;42.720;23.336;2023-05-14T02:21:47;-22834.91;;;13.52;75.43
5296;BME280;2670;42.720;23.336;2023-05-14T02:24:14;-22834.63;;;13.51;76.48
5296;BME280;2670;42.720;23.336;2023-05-14T02:26:41;-22834.31;;;13.50;77.52
5296;BME280;2670;42.720;23.336;2023-05-14T02:29:09;-22833.75;;;13.48;77.75
5296;BME280;2670;42.720;23.336;2023-05-14T02:31:35;-22833.00;;;13.45;77.87
5296;BME280;2670;42.720;23.336;2023-05-14T02:34:03;-22830.78;;;13.37;78.98
5296;BME280;2670;42.720;23.336;2023-05-14T02:36:30;-22829.59;;;13.33;78.83
5296;BME280;2670;42.720;23.336;2023-05-14T02:38:58;-22828.88;;;13.31;77.89
5296;BME280;2670;42.720;23.336;2023-05-14T02:41:25;-22827.97;;;13.28;78.35
5296;BME280;2670;42.720;23.336;2023-05-14T02:43:52;-22827.53;;;13.26;78.10
5296;BME280;2670;42.720;23.336;2023-05-14T02:46:20;-22826.78;;;13.24;78.24
5296;BME280;2670;42.720;23.336;2023-05-14T02:48:47;-22825.59;;;13.19;78.48
5296;BME280;2670;42.720;23.336;2023-05-14T02:51:14;-22825.03;;;13.17;78.92
5296;BME280;2670;42.720;23.336;2023-05-14T02:53:41;-22826.66;;;13.23;78.26
5296;BME280;2670;42.720;23.336;2023-05-14T02:56:08;-22826.50;;;13.23;77.42
5296;BME280;2670;42.720;23.336;2023-05-14T02:58:34;-22824.88;;;13.17;77.83
5296;BME280;2670;42.720;23.336;2023-05-14T03:01:01;-22825.75;;;13.20;77.56
5296;BME280;2670;42.720;23.336;2023-05-14T03:03:29;-22826.19;;;13.21;77.32
5296;BME280;2670;42.720;23.336;2023-05-14T03:05:56;-22823.41;;;13.12;78.18
5296;BME280;2670;42.720;23.336;2023-05-14T03:08:23;-22824.44;;;13.15;78.21
5296;BME280;2670;42.720;23.336;2023-05-14T03:10:50;-22822.50;;;13.09;77.66
5296;BME280;2670;42.720;23.336;2023-05-14T03:13:17;-22821.91;;;13.07;78.14
5296;BME280;2670;42.720;23.336;2023-05-14T03:15:45;-22821.19;;;13.04;78.52
5296;BME280;2670;42.720;23.336;2023-05-14T03:18:12;-22819.69;;;12.99;78.80
5296;BME280;2670;42.720;23.336;2023-05-14T03:20:40;-22820.28;;;13.01;78.77
5296;BME280;2670;42.720;23.336;2023-05-14T03:23:07;-22820.75;;;13.03;78.69
5296;BME280;2670;42.720;23.336;2023-05-14T03:25:34;-22822.94;;;13.10;78.03
5296;BME280;2670;42.720;23.336;2023-05-14T03:28:01;-22821.91;;;13.07;78.37
5296;BME280;2670;42.720;23.336;2023-05-14T03:30:28;-22821.34;;;13.05;78.23
5296;BME280;2670;42.720;23.336;2023-05-14T03:32:55;-22820.28;;;13.01;78.00
5296;BME280;2670;42.720;23.336;2023-05-14T03:35:22;-22818.22;;;12.94;78.99
5296;BME280;2670;42.720;23.336;2023-05-14T03:37:50;-22820.75;;;13.03;78.99
5296;BME280;2670;42.720;23.336;2023-05-14T03:40:17;-22820.44;;;13.02;78.99
5296;BME280;2670;42.720;23.336;2023-05-14T03:42:44;-22821.03;;;13.04;79.93
5296;BME280;2670;42.720;23.336;2023-05-14T03:45:10;-22822.06;;;13.07;82.15
5296;BME280;2670;42.720;23.336;2023-05-14T03:47:37;-22820.00;;;13.00;83.12
5296;BME280;2670;42.720;23.336;2023-05-14T03:50:05;-22819.69;;;12.99;83.50
5296;BME280;2670;42.720;23.336;2023-05-14T03:52:32;-22819.84;;;13.00;84.71
5296;BME280;2670;42.720;23.336;2023-05-14T03:55:00;-22818.81;;;12.96;87.09
5296;BME280;2670;42.720;23.336;2023-05-14T03:57:27;-22818.81;;;12.96;87.64
5296;BME280;2670;42.720;23.336;2023-05-14T03:59:54;-22820.28;;;13.01;87.41
5296;BME280;2670;42.720;23.336;2023-05-14T04:02:20;-22818.66;;;12.95;88.62
5296;BME280;2670;42.720;23.336;2023-05-14T04:04:47;-22818.81;;;12.96;88.67
5296;BME280;2670;42.720;23.336;2023-05-14T04:07:14;-22816.47;;;12.88;87.15
5296;BME280;2670;42.720;23.336;2023-05-14T04:09:40;-22814.53;;;12.81;88.07
5296;BME280;2670;42.720;23.336;2023-05-14T04:12:09;-22814.81;;;12.82;87.98
5296;BME280;2670;42.720;23.336;2023-05-14T04:14:35;-22813.50;;;12.78;88.56
5296;BME280;2670;42.720;23.336;2023-05-14T04:17:02;-22813.50;;;12.78;88.28
5296;BME280;2670;42.720;23.336;2023-05-14T04:19:29;-22812.91;;;12.76;88.83
5296;BME280;2670;42.720;23.336;2023-05-14T04:21:55;-22817.19;;;12.90;88.21
5296;BME280;2670;42.720;23.336;2023-05-14T04:24:22;-22815.13;;;12.83;88.54
5296;BME280;2670;42.720;23.336;2023-05-14T04:26:49;-22816.31;;;12.87;88.30
5296;BME280;2670;42.720;23.336;2023-05-14T04:29:17;-22814.81;;;12.82;88.76
5296;BME280;2670;42.720;23.336;2023-05-14T04:31:43;-22815.56;;;12.85;88.60
5296;BME280;2670;42.720;23.336;2023-05-14T04:34:10;-22814.53;;;12.81;88.37
5296;BME280;2670;42.720;23.336;2023-05-14T04:36:37;-22816.75;;;12.89;87.53
5296;BME280;2670;42.720;23.336;2023-05-14T04:39:04;-22814.38;;;12.81;87.70
5296;BME280;2670;42.720;23.336;2023-05-14T04:41:31;-22814.97;;;12.83;87.40
5296;BME280;2670;42.720;23.336;2023-05-14T04:43:59;-22819.25;;;12.98;86.99
5296;BME280;2670;42.720;23.336;2023-05-14T04:46:27;-22816.31;;;12.87;86.71
5296;BME280;2670;42.720;23.336;2023-05-14T04:48:54;-22814.69;;;12.82;87.79
5296;BME280;2670;42.720;23.336;2023-05-14T04:51:22;-22813.94;;;12.79;88.69
5296;BME280;2670;42.720;23.336;2023-05-14T04:53:48;-22815.41;;;12.84;89.89
5296;BME280;2670;42.720;23.336;2023-05-14T04:56:15;-22817.78;;;12.92;91.98
5296;BME280;2670;42.720;23.336;2023-05-14T04:58:42;-22818.09;;;12.93;93.31
5296;BME280;2670;42.720;23.336;2023-05-14T05:01:08;-22814.25;;;12.80;95.58
5296;BME280;2670;42.720;23.336;2023-05-14T05:03:36;-22811.59;;;12.71;97.80
5296;BME280;2670;42.720;23.336;2023-05-14T05:06:03;-22811.72;;;12.71;100.00
5296;BME280;2670;42.720;23.336;2023-05-14T05:08:30;-22811.13;;;12.69;100.00
5296;BME280;2670;42.720;23.336;2023-05-14T05:10:56;-22810.09;;;12.66;100.00
5296;BME280;2670;42.720;23.336;2023-05-14T05:13:23;-22809.81;;;12.65;100.00
5296;BME280;2670;42.720;23.336;2023-05-14T05:15:50;-22809.06;;;12.62;100.00
5296;BME280;2670;42.720;23.336;2023-05-14T05:18:17;-22808.91;;;12.62;100.00
5296;BME280;2670;42.720;23.336;2023-05-14T05:20:45;-22806.13;;;12.52;100.00
5296;BME280;2670;42.720;23.336;2023-05-14T05:23:11;-22802.56;;;12.40;100.00
5296;BME280;2670;42.720;23.336;2023-05-14T05:25:38;-22800.34;;;12.32;100.00
5296;BME280;2670;42.720;23.336;2023-05-14T05:28:05;-22803.31;;;12.42;100.00
5296;BME280;2670;42.720;23.336;2023-05-14T05:30:32;-22800.94;;;12.34;100.00
5296;BME280;2670;42.720;23.336;2023-05-14T05:32:59;-22796.66;;;12.19;100.00
5296;BME280;2670;42.720;23.336;2023-05-14T05:35:25;-22795.78;;;12.16;100.00
5296;BME280;2670;42.720;23.336;2023-05-14T05:37:53;-22793.84;;;12.10;100.00
5296;BME280;2670;42.720;23.336;2023-05-14T05:40:20;-22792.97;;;12.07;100.00
5296;BME280;2670;42.720;23.336;2023-05-14T05:42:47;-22794.88;;;12.13;100.00
5296;BME280;2670;42.720;23.336;2023-05-14T05:45:13;-22792.97;;;12.07;100.00
5296;BME280;2670;42.720;23.336;2023-05-14T05:47:40;-22792.66;;;12.06;100.00
5296;BME280;2670;42.720;23.336;2023-05-14T05:50:08;-22791.03;;;12.00;100.00
5296;BME280;2670;42.720;23.336;2023-05-14T05:52:35;-22791.47;;;12.02;100.00
5296;BME280;2670;42.720;23.336;2023-05-14T05:55:03;-22790.44;;;11.98;100.00
5296;BME280;2670;42.720;23.336;2023-05-14T05:57:30;-22788.81;;;11.92;100.00
5296;BME280;2670;42.720;23.336;2023-05-14T05:59:57;-22787.63;;;11.88;100.00
5296;BME280;2670;42.720;23.336;2023-05-14T06:02:23;-22785.56;;;11.81;100.00
5296;BME280;2670;42.720;23.336;2023-05-14T06:04:50;-22784.53;;;11.78;100.00
5296;BME280;2670;42.720;23.336;2023-05-14T06:07:17;-22783.47;;;11.74;100.00
5296;BME280;2670;42.720;23.336;2023-05-14T06:09:44;-22785.13;;;11.80;100.00
5296;BME280;2670;42.720;23.336;2023-05-14T06:12:12;-22783.34;;;11.73;100.00
5296;BME280;2670;42.720;23.336;2023-05-14T06:14:38;-22786.31;;;11.84;100.00
5296;BME280;2670;42.720;23.336;2023-05-14T06:17:05;-22783.47;;;11.74;100.00
5296;BME280;2670;42.720;23.336;2023-05-14T06:19:32;-22781.56;;;11.67;100.00
5296;BME280;2670;42.720;23.336;2023-05-14T06:21:59;-22779.94;;;11.62;100.00
5296;BME280;2670;42.720;23.336;2023-05-14T06:24:25;-22781.84;;;11.68;100.00
5296;BME280;2670;42.720;23.336;2023-05-14T06:26:52;-22780.81;;;11.65;100.00
5296;BME280;2670;42.720;23.336;2023-05-14T06:29:20;-22779.94;;;11.62;100.00
5296;BME280;2670;42.720;23.336;2023-05-14T06:31:47;-22782.75;;;11.71;100.00
5296;BME280;2670;42.720;23.336;2023-05-14T06:34:14;-22780.97;;;11.65;100.00
5296;BME280;2670;42.720;23.336;2023-05-14T06:36:40;-22781.41;;;11.67;100.00
5296;BME280;2670;42.720;23.336;2023-05-14T06:39:07;-22779.50;;;11.60;100.00
5296;BME280;2670;42.720;23.336;2023-05-14T06:41:34;-22778.91;;;11.58;100.00
5296;BME280;2670;42.720;23.336;2023-05-14T06:44:00;-22779.94;;;11.62;100.00
5296;BME280;2670;42.720;23.336;2023-05-14T06:46:29;-22777.41;;;11.53;100.00
5296;BME280;2670;42.720;23.336;2023-05-14T06:48:56;-22781.72;;;11.68;100.00
5296;BME280;2670;42.720;23.336;2023-05-14T06:51:22;-22776.81;;;11.51;100.00
5296;BME280;2670;42.720;23.336;2023-05-14T06:53:49;-22779.94;;;11.62;100.00
5296;BME280;2670;42.720;23.336;2023-05-14T06:56:16;-22778.16;;;11.56;100.00
5296;BME280;2670;42.720;23.336;2023-05-14T06:58:43;-22780.22;;;11.63;100.00
5296;BME280;2670;42.720;23.336;2023-05-14T07:01:10;-22778.59;;;11.57;100.00
5296;BME280;2670;42.720;23.336;2023-05-14T07:03:38;-22777.28;;;11.53;100.00
5296;BME280;2670;42.720;23.336;2023-05-14T07:06:05;-22777.72;;;11.54;100.00
5296;BME280;2670;42.720;23.336;2023-05-14T07:08:32;-22778.44;;;11.57;100.00
5296;BME280;2670;42.720;23.336;2023-05-14T07:10:59;-22778.00;;;11.55;100.00
5296;BME280;2670;42.720;23.336;2023-05-14T07:13:25;-22776.22;;;11.49;100.00
5296;BME280;2670;42.720;23.336;2023-05-14T07:15:52;-22776.69;;;11.51;100.00
5296;BME280;2670;42.720;23.336;2023-05-14T07:18:20;-22775.94;;;11.48;100.00
5296;BME280;2670;42.720;23.336;2023-05-14T07:20:48;-22774.31;;;11.42;100.00
5296;BME280;2670;42.720;23.336;2023-05-14T07:23:15;-22774.59;;;11.43;100.00
5296;BME280;2670;42.720;23.336;2023-05-14T07:25:41;-22774.91;;;11.44;100.00
5296;BME280;2670;42.720;23.336;2023-05-14T07:28:08;-22774.75;;;11.44;100.00
5296;BME280;2670;42.720;23.336;2023-05-14T07:30:35;-22774.91;;;11.44;100.00
5296;BME280;2670;42.720;23.336;2023-05-14T07:33:01;-22774.91;;;11.44;100.00
5296;BME280;2670;42.720;23.336;2023-05-14T07:35:28;-22771.50;;;11.33;100.00
5296;BME280;2670;42.720;23.336;2023-05-14T07:37:56;-22771.06;;;11.31;100.00
5296;BME280;2670;42.720;23.336;2023-05-14T07:40:23;-22771.06;;;11.31;100.00
5296;BME280;2670;42.720;23.336;2023-05-14T07:42:50;-22770.91;;;11.31;100.00
5296;BME280;2670;42.720;23.336;2023-05-14T07:45:16;-22774.91;;;11.44;100.00
5296;BME280;2670;42.720;23.336;2023-05-14T07:47:43;-22772.53;;;11.36;100.00
5296;BME280;2670;42.720;23.336;2023-05-14T07:50:10;-22773.13;;;11.38;100.00
5296;BME280;2670;42.720;23.336;2023-05-14T07:52:37;-22773.13;;;11.38;100.00
5296;BME280;2670;42.720;23.336;2023-05-14T07:55:06;-22777.28;;;11.53;100.00
5296;BME280;2670;42.720;23.336;2023-05-14T07:57:33;-22775.50;;;11.46;100.00
5296;BME280;2670;42.720;23.336;2023-05-14T07:59:59;-22772.09;;;11.35;100.00
5296;BME280;2670;42.720;23.336;2023-05-14T08:02:26;-22768.69;;;11.23;100.00
5296;BME280;2670;42.720;23.336;2023-05-14T08:04:53;-22771.34;;;11.32;100.00
5296;BME280;2670;42.720;23.336;2023-05-14T08:07:20;-22773.44;;;11.39;100.00
5296;BME280;2670;42.720;23.336;2023-05-14T08:09:47;-22773.44;;;11.39;100.00
5296;BME280;2670;42.720;23.336;2023-05-14T08:12:15;-22771.94;;;11.34;100.00
5296;BME280;2670;42.720;23.336;2023-05-14T08:14:41;-22773.56;;;11.40;100.00
5296;BME280;2670;42.720;23.336;2023-05-14T08:17:08;-22773.88;;;11.41;100.00
5296;BME280;2670;42.720;23.336;2023-05-14T08:19:35;-22771.50;;;11.33;100.00
5296;BME280;2670;42.720;23.336;2023-05-14T08:22:02;-22772.84;;;11.37;100.00
5296;BME280;2670;42.720;23.336;2023-05-14T08:24:29;-22772.84;;;11.37;100.00
5296;BME280;2670;42.720;23.336;2023-05-14T08:26:55;-22774.47;;;11.43;100.00
5296;BME280;2670;42.720;23.336;2023-05-14T08:29:23;-22776.22;;;11.49;100.00
5296;BME280;2670;42.720;23.336;2023-05-14T08:31:51;-22775.06;;;11.45;100.00
5296;BME280;2670;42.720;23.336;2023-05-14T08:34:17;-22773.56;;;11.40;100.00
5296;BME280;2670;42.720;23.336;2023-05-14T08:36:44;-22772.53;;;11.36;100.00
5296;BME280;2670;42.720;23.336;2023-05-14T08:39:11;-22773.28;;;11.39;100.00
5296;BME280;2670;42.720;23.336;2023-05-14T08:41:38;-22772.09;;;11.35;100.00
5296;BME280;2670;42.720;23.336;2023-05-14T08:44:07;-22774.59;;;11.43;100.00
5296;BME280;2670;42.720;23.336;2023-05-14T08:46:39;-22774.75;;;11.44;100.00
5296;BME280;2670;42.720;23.336;2023-05-14T08:49:14;-22774.75;;;11.44;100.00
5296;BME280;2670;42.720;23.336;2023-05-14T08:51:43;-22775.50;;;11.46;100.00
5296;BME280;2670;42.720;23.336;2023-05-14T08:54:12;-22774.47;;;11.43;100.00
5296;BME280;2670;42.720;23.336;2023-05-14T08:56:43;-22771.94;;;11.34;100.00
5296;BME280;2670;42.720;23.336;2023-05-14T08:59:10;-22774.03;;;11.41;100.00
5296;BME280;2670;42.720;23.336;2023-05-14T09:01:37;-22774.16;;;11.42;100.00
5296;BME280;2670;42.720;23.336;2023-05-14T09:04:05;-22772.84;;;11.37;100.00
5296;BME280;2670;42.720;23.336;2023-05-14T09:06:34;-22774.16;;;11.42;100.00
5296;BME280;2670;42.720;23.336;2023-05-14T09:09:01;-22774.03;;;11.41;100.00
5296;BME280;2670;42.720;23.336;2023-05-14T09:11:27;-22776.09;;;11.48;100.00
5296;BME280;2670;42.720;23.336;2023-05-14T09:13:54;-22776.22;;;11.49;100.00
5296;BME280;2670;42.720;23.336;2023-05-14T09:16:21;-22777.72;;;11.54;100.00
5296;BME280;2670;42.720;23.336;2023-05-14T09:18:50;-22777.41;;;11.53;100.00
5296;BME280;2670;42.720;23.336;2023-05-14T09:21:18;-22776.97;;;11.52;100.00
5296;BME280;2670;42.720;23.336;2023-05-14T09:23:45;-22775.34;;;11.46;100.00
5296;BME280;2670;42.720;23.336;2023-05-14T09:26:16;-22777.56;;;11.54;100.00
5296;BME280;2670;42.720;23.336;2023-05-14T09:28:43;-22775.66;;;11.47;100.00
5296;BME280;2670;42.720;23.336;2023-05-14T09:31:10;-22773.88;;;11.41;100.00
5296;BME280;2670;42.720;23.336;2023-05-14T09:33:37;-22775.66;;;11.47;100.00
5296;BME280;2670;42.720;23.336;2023-05-14T09:36:04;-22773.88;;;11.41;100.00
5296;BME280;2670;42.720;23.336;2023-05-14T09:38:33;-22769.56;;;11.26;100.00
5296;BME280;2670;42.720;23.336;2023-05-14T09:40:59;-22769.44;;;11.26;100.00
5296;BME280;2670;42.720;23.336;2023-05-14T09:43:26;-22771.19;;;11.32;100.00
5296;BME280;2670;42.720;23.336;2023-05-14T09:45:53;-22771.94;;;11.34;100.00
5296;BME280;2670;42.720;23.336;2023-05-14T09:48:20;-22771.34;;;11.32;100.00
5296;BME280;2670;42.720;23.336;2023-05-14T09:50:47;-22771.94;;;11.34;100.00
5296;BME280;2670;42.720;23.336;2023-05-14T09:53:14;-22772.69;;;11.37;100.00
5296;BME280;2670;42.720;23.336;2023-05-14T09:55:43;-22773.44;;;11.39;100.00
5296;BME280;2670;42.720;23.336;2023-05-14T09:58:10;-22773.72;;;11.40;100.00
5296;BME280;2670;42.720;23.336;2023-05-14T10:00:38;-22769.44;;;11.26;100.00
5296;BME280;2670;42.720;23.336;2023-05-14T10:03:12;-22770.91;;;11.31;100.00
5296;BME280;2670;42.720;23.336;2023-05-14T10:05:40;-22768.84;;;11.23;100.00
5296;BME280;2670;42.720;23.336;2023-05-14T10:08:11;-22767.81;;;11.20;100.00
5296;BME280;2670;42.720;23.336;2023-05-14T10:10:41;-22769.13;;;11.25;100.00
5296;BME280;2670;42.720;23.336;2023-05-14T10:13:12;-22770.03;;;11.28;100.00
5296;BME280;2670;42.720;23.336;2023-05-14T10:15:42;-22770.16;;;11.28;100.00
5296;BME280;2670;42.720;23.336;2023-05-14T10:18:15;-22764.41;;;11.08;100.00
5296;BME280;2670;42.720;23.336;2023-05-14T10:20:42;-22765.44;;;11.12;100.00
5296;BME280;2670;42.720;23.336;2023-05-14T10:23:10;-22764.69;;;11.09;100.00
5296;BME280;2670;42.720;23.336;2023-05-14T10:25:37;-22762.19;;;11.01;100.00
5296;BME280;2670;42.720;23.336;2023-05-14T10:28:05;-22762.91;;;11.03;100.00
5296;BME280;2670;42.720;23.336;2023-05-14T10:30:33;-22759.97;;;10.93;100.00
5296;BME280;2670;42.720;23.336;2023-05-14T10:33:07;-22761.59;;;10.98;100.00
5296;BME280;2670;42.720;23.336;2023-05-14T10:35:54;-22761.28;;;10.97;100.00
5296;BME280;2670;42.720;23.336;2023-05-14T10:38:22;-22757.44;;;10.84;100.00
5296;BME280;2670;42.720;23.336;2023-05-14T10:40:54;-22758.03;;;10.86;100.00
5296;BME280;2670;42.720;23.336;2023-05-14T10:43:24;-22758.63;;;10.88;100.00
5296;BME280;2670;42.720;23.336;2023-05-14T10:45:53;-22756.41;;;10.81;100.00
5296;BME280;2670;42.720;23.336;2023-05-14T10:48:20;-22757.00;;;10.83;100.00
5296;BME280;2670;42.720;23.336;2023-05-14T10:50:47;-22757.59;;;10.85;100.00
5296;BME280;2670;42.720;23.336;2023-05-14T10:53:14;-22755.81;;;10.79;100.00
5296;BME280;2670;42.720;23.336;2023-05-14T10:55:42;-22757.88;;;10.86;100.00
5296;BME280;2670;42.720;23.336;2023-05-14T10:58:09;-22758.19;;;10.87;100.00
5296;BME280;2670;42.720;23.336;2023-05-14T11:00:37;-22759.50;;;10.91;100.00
5296;BME280;2670;42.720;23.336;2023-05-14T11:03:06;-22756.69;;;10.82;100.00
5296;BME280;2670;42.720;23.336;2023-05-14T11:05:33;-22754.91;;;10.76;100.00
5296;BME280;2670;42.720;23.336;2023-05-14T11:08:04;-22753.44;;;10.70;100.00
5296;BME280;2670;42.720;23.336;2023-05-14T11:10:32;-22753.44;;;10.70;100.00
5296;BME280;2670;42.720;23.336;2023-05-14T11:13:00;-22754.47;;;10.74;100.00
5296;BME280;2670;42.720;23.336;2023-05-14T11:15:27;-22756.41;;;10.81;100.00
5296;BME280;2670;42.720;23.336;2023-05-14T11:17:54;-22758.03;;;10.86;100.00
5296;BME280;2670;42.720;23.336;2023-05-14T11:20:22;-22757.59;;;10.85;100.00
5296;BME280;2670;42.720;23.336;2023-05-14T11:22:49;-22759.22;;;10.90;100.00
5296;BME280;2670;42.720;23.336;2023-05-14T11:25:16;-22760.09;;;10.93;100.00
5296;BME280;2670;42.720;23.336;2023-05-14T11:27:44;-22760.09;;;10.93;100.00
5296;BME280;2670;42.720;23.336;2023-05-14T11:30:12;-22762.03;;;11.00;100.00
5296;BME280;2670;42.720;23.336;2023-05-14T11:32:39;-22761.28;;;10.97;100.00
5296;BME280;2670;42.720;23.336;2023-05-14T11:35:07;-22759.81;;;10.92;100.00
5296;BME280;2670;42.720;23.336;2023-05-14T11:37:35;-22761.72;;;10.99;100.00
5296;BME280;2670;42.720;23.336;2023-05-14T11:40:05;-22761.00;;;10.96;100.00
5296;BME280;2670;42.720;23.336;2023-05-14T11:42:32;-22762.19;;;11.01;100.00
5296;BME280;2670;42.720;23.336;2023-05-14T11:44:59;-22762.47;;;11.02;100.00
5296;BME280;2670;42.720;23.336;2023-05-14T11:47:25;-22762.91;;;11.03;100.00
5296;BME280;2670;42.720;23.336;2023-05-14T11:49:58;-22762.47;;;11.02;100.00
5296;BME280;2670;42.720;23.336;2023-05-14T11:52:26;-22762.91;;;11.03;100.00
5296;BME280;2670;42.720;23.336;2023-05-14T11:54:54;-22763.66;;;11.06;100.00
5296;BME280;2670;42.720;23.336;2023-05-14T11:57:21;-22763.94;;;11.07;100.00
5296;BME280;2670;42.720;23.336;2023-05-14T11:59:54;-22762.63;;;11.02;100.00
5296;BME280;2670;42.720;23.336;2023-05-14T12:02:22;-22761.28;;;10.97;100.00
5296;BME280;2670;42.720;23.336;2023-05-14T12:04:49;-22762.75;;;11.03;100.00
5296;BME280;2670;42.720;23.336;2023-05-14T12:07:17;-22761.72;;;10.99;100.00
5296;BME280;2670;42.720;23.336;2023-05-14T12:09:45;-22763.06;;;11.04;100.00
5296;BME280;2670;42.720;23.336;2023-05-14T12:12:17;-22762.75;;;11.03;100.00
5296;BME280;2670;42.720;23.336;2023-05-14T12:14:45;-22762.75;;;11.03;100.00
5296;BME280;2670;42.720;23.336;2023-05-14T12:17:14;-22765.28;;;11.11;100.00
5296;BME280;2670;42.720;23.336;2023-05-14T12:19:42;-22767.06;;;11.17;100.00
5296;BME280;2670;42.720;23.336;2023-05-14T12:22:10;-22767.81;;;11.20;100.00
5296;BME280;2670;42.720;23.336;2023-05-14T12:24:37;-22767.34;;;11.18;100.00
5296;BME280;2670;42.720;23.336;2023-05-14T12:27:05;-22769.88;;;11.27;100.00
5296;BME280;2670;42.720;23.336;2023-05-14T12:29:36;-22772.09;;;11.35;100.00
5296;BME280;2670;42.720;23.336;2023-05-14T12:32:07;-22771.06;;;11.31;100.00
5296;BME280;2670;42.720;23.336;2023-05-14T12:34:34;-22772.97;;;11.38;100.00
5296;BME280;2670;42.720;23.336;2023-05-14T12:37:01;-22771.66;;;11.33;100.00
5296;BME280;2670;42.720;23.336;2023-05-14T12:39:30;-22773.72;;;11.40;100.00
5296;BME280;2670;42.720;23.336;2023-05-14T12:41:57;-22773.56;;;11.40;100.00
5296;BME280;2670;42.720;23.336;2023-05-14T12:44:24;-22772.97;;;11.38;100.00
5296;BME280;2670;42.720;23.336;2023-05-14T12:46:52;-22774.47;;;11.43;100.00
5296;BME280;2670;42.720;23.336;2023-05-14T12:49:19;-22771.66;;;11.33;100.00
5296;BME280;2670;42.720;23.336;2023-05-14T12:51:46;-22773.28;;;11.39;100.00
5296;BME280;2670;42.720;23.336;2023-05-14T12:54:12;-22774.03;;;11.41;100.00
5296;BME280;2670;42.720;23.336;2023-05-14T12:56:40;-22774.91;;;11.44;100.00